Murphy Oil Corp (MUR) Latest Bloomsberg Price


Mffais Ranking #1911 Overall / #54 Industry
Industry: Exploration And Production

Number of Companies: 292 (Ranking #540 Overall/#20 Industry)
Inflow: $ 140,749 (K) (Ranking #787 Overall/#33 Industry)
Outflow: $ -153,005 (K)
Mffais Flow: $ -12,256 (K) (Ranking #1911 Overall/#54 Industry)


Receive a FREE weekly executive review of stocks moving into the top 10, taking the top industy spot or moving up within their industry. Sent directly to your Inbox every Saturday. Sign up today and get last week's review immediately sent to you.

We value and respect your privacy. Please read our Terms and Conditions which states our firm commitment to your privacy. Your email address will not be shared with a third party, nor will it be sold or used for purposes other than subscription for the weekly review.

Owner CPOR Shares Action Qty Chg Invested (K) Total Current Value (K)
Deprince Race Zollo Inc 2016-09-30 1,666,707 Added More 580,099 $ 16,428 $ 47,201
Arosa Capital Management Lp 2016-09-30 823,580 Added More 549,100 $ 15,550 $ 23,323
Pzena Investment Management Llc 2016-09-30 9,557,669 Added More 370,977 $ 10,506 $ 270,673
Airain Ltd 2016-09-30 304,839 New Holding 304,839 $ 8,633 $ 8,633
Dimensional Fund Advisors Lp 2016-09-30 2,330,437 Added More 260,447 $ 7,375 $ 65,997
Twin Tree Management Lp 2016-09-30 269,596 Added More 240,050 $ 6,798 $ 7,634
Brandywine Global Investment Management Llc 2016-09-30 698,537 Added More 200,842 $ 5,687 $ 19,782
Origin Asset Management Llp 2016-09-30 182,000 New Holding 182,000 $ 5,154 $ 5,154
Meag Munich Ergo Kapitalanlagegesellschaft Mbh 2016-09-30 163,957 New Holding 163,957 $ 4,643 $ 4,643
Willis Investment Counsel 2016-09-30 408,945 Added More 142,585 $ 4,038 $ 11,581
Parametric Portfolio Associates Llc 2016-09-30 1,003,290 Added More 120,953 $ 3,425 $ 28,413
Td Asset Management Inc 2016-09-30 192,858 Added More 118,237 $ 3,348 $ 5,461
Aviva Plc 2016-09-30 192,450 Added More 92,147 $ 2,609 $ 5,450
Omers Administration Corp 2016-09-30 208,800 Added More 84,200 $ 2,384 $ 5,913
Zurcher Kantonalbank Zurich Cantonalbank 2016-09-30 146,509 Added More 81,968 $ 2,321 $ 4,149
Vident Investment Advisory Llc 2016-09-30 78,469 New Holding 78,469 $ 2,222 $ 2,222
Northcoast Asset Management Llc 2016-09-30 72,776 New Holding 72,776 $ 2,061 $ 2,061
Capstone Investment Advisors Llc 2016-09-30 64,373 New Holding 64,373 $ 1,823 $ 1,823
Walleye Trading Llc 2016-09-30 169,808 Added More 63,989 $ 1,812 $ 4,808
Grantham Mayo Van Otterloo Co Llc 2016-09-30 152,368 Added More 62,868 $ 1,780 $ 4,315
Gotham Asset Management Llc 2016-09-30 73,713 Added More 60,693 $ 1,718 $ 2,087
Legal General Group Plc 2016-09-30 1,068,805 Added More 60,671 $ 1,718 $ 30,268
Nationwide Fund Advisors 2016-09-30 428,401 Added More 54,900 $ 1,554 $ 12,132
Westpac Banking Corp 2016-09-30 229,196 Added More 54,100 $ 1,532 $ 6,490
Alethea Capital Management Llc 2016-09-30 52,952 New Holding 52,952 $ 1,499 $ 1,499
Comerica Bank 2016-09-30 262,660 Added More 44,937 $ 1,272 $ 7,438
Guggenheim Capital Llc 2016-09-30 970,223 Added More 44,116 $ 1,249 $ 27,476
Kernodle Katon Asset Management Group Llc 2016-09-30 46,022 Added More 43,135 $ 1,221 $ 1,303
Nuveen Fund Advisors Llc 2016-09-30 86,873 Added More 41,539 $ 1,176 $ 2,460
Thrivent Financial For Lutherans 2016-09-30 40,930 New Holding 40,930 $ 1,159 $ 1,159
Cadence Capital Management Llc 2016-09-30 254,746 Added More 39,915 $ 1,130 $ 7,214
Cambria Investment Management L P 2016-09-30 39,598 New Holding 39,598 $ 1,121 $ 1,121
Axa 2016-09-30 1,097,745 Added More 33,158 $ 939 $ 31,088
Connor Clark Lunn Investment Management Ltd 2016-09-30 40,100 Added More 32,900 $ 931 $ 1,135
Highbridge Capital Management Llc 2016-09-30 32,000 New Holding 32,000 $ 906 $ 906
Verition Fund Management Llc 2016-09-30 31,998 New Holding 31,998 $ 906 $ 906
Mitsubishi Ufj Trust Banking Corp 2016-09-30 357,118 Added More 29,051 $ 822 $ 10,113
Sei Investments Co 2016-09-30 35,650 Added More 28,586 $ 809 $ 1,009
Quantitative Investment Management Llc 2016-09-30 27,400 New Holding 27,400 $ 775 $ 775
Elm Ridge Management Llc 2016-09-30 579,568 Added More 27,195 $ 770 $ 16,413
Korea Investment Corp 2016-09-30 110,700 Added More 24,800 $ 702 $ 3,135
Grace White Inc Ny 2016-09-30 369,400 Added More 23,250 $ 658 $ 10,461
Adams Asset Advisors Llc 2016-09-30 352,687 Added More 18,531 $ 524 $ 9,988
State Of Tennessee Treasury Department 2016-09-30 53,228 Added More 17,336 $ 490 $ 1,507
Old Mutual Global Investors Uk Ltd 2016-09-30 23,892 Added More 15,270 $ 432 $ 676
Investors Capital Advisory Services 2016-06-30 13,425 New Holding 13,425 $ 426 $ 426
Ftb Advisors Inc 2016-09-30 115,725 Added More 14,289 $ 404 $ 3,277
Emerald Acquisition Ltd 2016-09-30 182,684 Added More 13,840 $ 391 $ 5,173
British Columbia Investment Management Corp 2016-09-30 73,456 Added More 12,246 $ 346 $ 2,080
Bokf Na 2016-09-30 99,699 Added More 11,381 $ 322 $ 2,823
Blackrock Investment Management Llc 2016-09-30 505,908 Added More 9,860 $ 279 $ 14,327
Northwestern Mutual Investment Management Company Llc 2016-09-30 16,014 Added More 9,839 $ 278 $ 453
Sg Americas Securities Llc 2016-09-30 32,614 Added More 9,812 $ 277 $ 923
Alambic Investment Management L P 2016-09-30 61,300 Added More 9,400 $ 266 $ 1,736
Cetera Advisor Networks Llc 2016-09-30 8,462 New Holding 8,462 $ 239 $ 239
Cornerstone Investment Partners Llc 2016-09-30 28,633 Added More 8,384 $ 237 $ 810
Hilltop Holdings Inc 2016-09-30 7,774 New Holding 7,774 $ 220 $ 220
Tower Research Capital Llc Trc 2016-09-30 14,348 Added More 7,716 $ 218 $ 406
Rhumbline Advisers 2016-09-30 284,693 Added More 6,710 $ 190 $ 8,062
Tredje Ap-Fonden 2016-09-30 35,785 Added More 6,462 $ 183 $ 1,013
Weiss Asset Management Lp 2016-09-30 23,225 Added More 5,797 $ 164 $ 657
Public Sector Pension Investment Board 2016-09-30 36,049 Added More 5,300 $ 150 $ 1,020
Hermes Investment Management Ltd 2016-09-30 17,076 Added More 5,000 $ 141 $ 483
Group One Trading L P 2016-09-30 4,805 New Holding 4,805 $ 136 $ 136
Liberty Mutual Group Asset Management Inc 2016-09-30 16,223 Added More 4,188 $ 118 $ 459
Virtus Investment Advisers Inc 2016-09-30 3,172 New Holding 3,172 $ 89 $ 89
California State Teachers Retirement System 2016-09-30 358,212 Added More 3,000 $ 84 $ 10,144
Jane Street Group Llc 2016-09-30 36,957 Added More 2,652 $ 75 $ 1,046
Ladenburg Thalmann Financial Services Inc 2016-09-30 3,504 Added More 2,652 $ 75 $ 99
Mizuho Trust Banking Co Ltd 2016-09-30 261,313 Added More 2,206 $ 62 $ 7,400
Bluemountain Capital Management Llc 2016-09-30 1,952 New Holding 1,952 $ 55 $ 55
Hsbc Holdings Plc 2016-09-30 89,890 Added More 1,837 $ 52 $ 2,545
Fjarde Ap-Fonden Fourth Swedish National Pension Fund 2016-09-30 33,075 Added More 1,803 $ 51 $ 936
Nomura Asset Management Co Ltd 2016-09-30 32,140 Added More 1,700 $ 48 $ 910
Town Country Bank Trust Co Dba First Bankers Trust Co 2016-09-30 15,112 Added More 1,585 $ 44 $ 427
Commonwealth Equity Services Inc 2016-09-30 12,612 Added More 1,507 $ 42 $ 357
Blackrock Japan Co Ltd 2016-09-30 225,619 Added More 1,307 $ 37 $ 6,389
Kalos Management Inc 2016-09-30 70,001 Added More 1,263 $ 35 $ 1,982
Pacer Advisors Inc 2016-09-30 15,207 Added More 1,052 $ 29 $ 430
Advisor Group Inc 2016-09-30 4,782 Added More 1,051 $ 29 $ 135
Charter Trust Co 2016-09-30 20,799 Added More 1,032 $ 29 $ 589
Jacobi Capital Management Llc 2016-09-30 6,558 Added More 997 $ 28 $ 185
Mitsubishi Ufj Kokusai Asset Management Co Ltd 2016-09-30 25,313 Added More 851 $ 24 $ 716
Hartford Investment Management Co 2016-09-30 39,667 Added More 846 $ 23 $ 1,123
Advisor Partners Llc 2016-09-30 7,786 Added More 792 $ 22 $ 220
Ifp Advisors Inc 2016-09-30 16,065 Added More 700 $ 19 $ 454
Raymond James Associates 2016-09-30 19,078 Added More 653 $ 18 $ 540
Contravisory Investment Management Inc 2016-09-30 575 New Holding 575 $ 16 $ 16
World Asset Management Inc 2016-09-30 20,717 Added More 528 $ 14 $ 586
Advisory Services Network Llc 2016-09-30 1,244 Added More 519 $ 14 $ 35
Fort Washington Investment Advisors Inc Oh 2016-09-30 30,755 Added More 514 $ 14 $ 870
Highland Capital Management Llc 2016-09-30 71,627 Added More 455 $ 12 $ 2,028
Delta Asset Management Llc Tn 2016-09-30 400 New Holding 400 $ 11 $ 11
Global X Management Co Llc 2016-09-30 330 Added More 308 $ 8 $ 9
State Treasurer State Of Michigan 2016-09-30 56,501 Added More 300 $ 8 $ 1,600
Liberty Capital Management Inc 2016-09-30 250 New Holding 250 $ 7 $ 7
Simmons Bank 2016-09-30 35,762 Added More 199 $ 5 $ 1,012
Pinebridge Investments L P 2016-09-30 4,030 Added More 198 $ 5 $ 114
Norinchukin Bank The 2016-09-30 8,666 Added More 176 $ 4 $ 245
Advantus Capital Management Inc 2016-09-30 15,788 Added More 156 $ 4 $ 447
First Personal Financial Services 2016-09-30 410 Added More 154 $ 4 $ 11
Smith Asset Management Group Lp 2016-09-30 1,950 Added More 110 $ 3 $ 55
Arizona State Retirement System 2016-09-30 39,822 Added More 100 $ 2 $ 1,127
Mason Street Advisors Llc 2016-09-30 21,898 Added More 96 $ 2 $ 620
Capstone Asset Management Co 2016-09-30 10,049 Added More 90 $ 2 $ 284
Washington Trust Bank 2016-09-30 17 New Holding 17 $ 0 $ 0
Quadrant Capital Group Llc 2016-09-30 108 Added More 16 $ 0 $ 3
Calamos Advisors Llc 2016-09-30 13,225 Added More 14 $ 0 $ 374
Fifth Third Bancorp 2016-09-30 54 Added More 12 $ 0 $ 1
Qs Investors Llc 2016-09-30 2,442 Added More 4 $ 0 $ 69
Great Lakes Advisors Llc 2016-09-30 12,364 Added More 1 $ 0 $ 350
Krilogy Financial Llc 2016-09-30 120 No Change 0 $ 0 $ 3
Gabelli Funds Llc 2016-09-30 79,000 No Change 0 $ 0 $ 2,237
Kanaly Trust Co 2016-09-30 294 No Change 0 $ 0 $ 8
First Citizens Bank Trust Co 2016-09-30 11,988 No Change 0 $ 0 $ 339
M R Capital Management Inc 2016-09-30 35 No Change 0 $ 0 $ 0
Castleark Management Llc 2016-09-30 95,890 No Change 0 $ 0 $ 2,715
Everence Capital Management Inc 2016-09-30 14,906 No Change 0 $ 0 $ 422
Monetary Management Group Inc 2016-09-30 300 No Change 0 $ 0 $ 8
Trust Co Of Vermont 2016-09-30 400 No Change 0 $ 0 $ 11
Northwestern Mutual Wealth Management Co 2016-09-30 23 No Change 0 $ 0 $ 0
Delta Lloyd Nv 2016-09-30 12,133 No Change 0 $ 0 $ 343
Shell Asset Management Co 2016-09-30 8,674 No Change 0 $ 0 $ 245
Whittier Trust Co Of Nevada Inc 2016-09-30 185 No Change 0 $ 0 $ 5
Piedmont Investment Advisors Llc 2016-09-30 16,009 No Change 0 $ 0 $ 453
Henderson Group Plc 2016-09-30 27,328 No Change 0 $ 0 $ 773
Enterprise Financial Services Corp 2016-09-30 469 No Change 0 $ 0 $ 13
Pictet Asset Management Ltd 2016-09-30 88,547 No Change 0 $ 0 $ 2,507
United Services Automobile Association 2016-09-30 49,934 No Change 0 $ 0 $ 1,414
Thompson Davis Co Inc 2016-09-30 1,850 No Change 0 $ 0 $ 52
Babson Capital Management Llc 2016-09-30 29,233 No Change 0 $ 0 $ 827
Central Securities Corp 2016-09-30 230,000 No Change 0 $ 0 $ 6,513
Cna Financial Corp 2016-09-30 107,025 No Change 0 $ 0 $ 3,030
Grimes Company Inc 2016-09-30 11,100 No Change 0 $ 0 $ 314
Thompson Siegel Walmsley Llc 2016-09-30 12,454 No Change 0 $ 0 $ 352
Texas Yale Capital Corp 2016-09-30 10,000 No Change 0 $ 0 $ 283
Glg Llc 2016-09-30 10,420 No Change 0 $ 0 $ 295
Umb Bank N A Mo 2016-09-30 14,250 No Change 0 $ 0 $ 403
Loring Wolcott Coolidge Fiduciary Advisors Llp Ma 2016-09-30 1,125 No Change 0 $ 0 $ 31
Employees Retirement System Of Texas 2016-09-30 12,000 No Change 0 $ 0 $ 339
South Street Advisors Llc 2016-09-30 8,600 No Change 0 $ 0 $ 243
Meyer Handelman Co 2016-09-30 9,000 No Change 0 $ 0 $ 254
Sumitomo Mitsui Asset Management Company Ltd 2016-09-30 12,250 No Change 0 $ 0 $ 346
Msi Financial Services Inc 2016-09-30 329 No Change 0 $ 0 $ 9
Wealthtrust-Arizona Llc 2016-09-30 218 No Change 0 $ 0 $ 6
Loews Corp 2016-09-30 11,000 No Change 0 $ 0 $ 311
Benjamin F Edwards Company Inc 2016-09-30 960 No Change 0 $ 0 $ 27
Parkside Financial Bank Trust 2016-09-30 32 No Change 0 $ 0 $ 0
Guardian Life Insurance Co Of America 2016-09-30 599 No Change 0 $ 0 $ 16
King Luther Capital Management Corp 2016-09-30 84,338 No Change 0 $ 0 $ 2,388
Johnson Financial Group Inc 2016-09-30 11 No Change 0 $ 0 $ 0
State Of New Jersey Common Pension Fund D 2016-09-30 180,000 No Change 0 $ 0 $ 5,097
Nj State Employees Deferred Compensation Plan 2016-09-30 18,000 No Change 0 $ 0 $ 509
I G Investment Management Ltd 2016-09-30 5,005 No Change 0 $ 0 $ 141
Tokio Marine Asset Management Co Ltd 2016-09-30 8,081 No Change 0 $ 0 $ 228
Davenport Co Llc 2016-09-30 7,211 No Change 0 $ 0 $ 204
Shinko Asset Management Co Ltd 2016-09-30 496 No Change 0 $ 0 $ 14
Mizuho Asset Management Co Ltd 2016-09-30 2,357 No Change 0 $ 0 $ 66
Nuveen Asset Management Llc 2016-09-30 10,603 No Change 0 $ 0 $ 300
Barrett Asset Management Llc 2016-09-30 60,600 No Change 0 $ 0 $ 1,716
Cornerstone Advisors Inc 2016-09-30 82 No Change 0 $ 0 $ 2
Skandinaviska Enskilda Banken Ab Publ 2016-09-30 16,143 No Change 0 $ 0 $ 457
Amp Capital Investors Ltd 2016-09-30 48,243 No Change 0 $ 0 $ 1,366
Signature Financial Management Inc 2016-09-30 392,596 No Change 0 $ 0 $ 11,118
Teachers Retirement System Of The State Of Kentucky 2016-09-30 23,500 No Change 0 $ 0 $ 665
Utah Retirement Systems 2016-09-30 29,742 No Change 0 $ 0 $ 842
Bartlett Co Llc 2016-09-30 200 No Change 0 $ 0 $ 5
Bank Of The Ozarks 2016-09-30 888,458 No Change 0 $ 0 $ 25,161
Mn Services Vermogensbeheer B V 2016-09-30 4,067 No Change 0 $ 0 $ 115
Amica Pension Fund Board Of Trustees 2016-09-30 6,405 No Change 0 $ 0 $ 181
Amica Mutual Insurance Co 2016-09-30 9,288 No Change 0 $ 0 $ 263
First Manhattan Co 2016-09-30 8,040 No Change 0 $ 0 $ 227
Gulf International Bank Uk Ltd 2016-09-30 50,267 No Change 0 $ 0 $ 1,423
Tarbox Group Inc 2016-09-30 32 No Change 0 $ 0 $ 0
Amica Retiree Medical Trust 2016-09-30 977 No Change 0 $ 0 $ 27
Lba Wealth Management Llc 2016-09-30 1,200 No Change 0 $ 0 $ 33
Next Financial Group Inc 2016-09-30 30 No Change 0 $ 0 $ 0
Ct Financial Advisors Llc 2016-09-30 300 No Change 0 $ 0 $ 8
Park Avenue Institutional Advisers Llc 2016-06-30 1,019 No Change 0 $ 0 $ 32
Ropes Wealth Advisors Llc 2016-09-30 5 No Change 0 $ 0 $ 0
Zions Bancorporation 2016-09-30 62 No Change 0 $ 0 $ 1
Proficio Capital Partners Llc 2016-09-30 149 No Change 0 $ 0 $ 4
Gofen Glossberg Llc Il 2016-09-30 9,200 Sold Some -8 $ -0 $ 260
Bronfman E L Rothschild L P 2016-09-30 383 Sold Some -10 $ -0 $ 10
First Quadrant L P Ca 2016-09-30 0 Sold All -11 $ -0 $ 0
Duncker Streett Co Inc 2016-09-30 0 Sold All -28 $ -0 $ 0
Earnest Partners Llc 2016-09-30 89,675 Sold Some -42 $ -1 $ 2,539
Morgan Dempsey Capital Management Llc 2016-09-30 0 Sold All -45 $ -1 $ 0
Fiduciary Trust Co 2016-09-30 13,037 Sold Some -66 $ -1 $ 369
Usa Mutuals Advisors Inc 2016-09-30 0 Sold All -78 $ -2 $ 0
Creative Planning 2016-09-30 673 Sold Some -79 $ -2 $ 19
Archford Capital Strategies Llc 2016-09-30 83 Sold Some -83 $ -2 $ 2
New York Life Trust Co 2016-09-30 342 Sold Some -103 $ -2 $ 9
Van Eck Associates Corp 2016-09-30 1,822 Sold Some -156 $ -4 $ 51
Dubuque Bank Trust Co 2016-09-30 65 Sold Some -168 $ -4 $ 1
Ls Investment Advisors Llc 2016-09-30 8,869 Sold Some -208 $ -5 $ 251
Sunbelt Securities Inc 2016-09-30 0 Sold All -240 $ -6 $ 0
Meeder Asset Management Inc 2016-09-30 24,861 Sold Some -287 $ -8 $ 704
Eaton Vance Management 2016-09-30 267,136 Sold Some -290 $ -8 $ 7,565
Murphy Pohlad Asset Management Llc 2016-09-30 7,593 Sold Some -355 $ -10 $ 215
Capital Fund Management S A 2016-09-30 6,700 Sold Some -400 $ -11 $ 189
Fruth Investment Management 2016-09-30 33,360 Sold Some -400 $ -11 $ 944
American International Group Inc 2016-09-30 104,738 Sold Some -401 $ -11 $ 2,966
Deere Co 2016-09-30 7,541 Sold Some -443 $ -12 $ 213
Central Trust Co 2016-09-30 267 Sold Some -533 $ -15 $ 7
Exxonmobil Investment Management Inc Tx 2016-09-30 41,330 Sold Some -568 $ -16 $ 1,170
Retirement Systems Of Alabama 2016-09-30 228,573 Sold Some -649 $ -18 $ 6,473
Ibm Retirement Fund 2016-09-30 15,798 Sold Some -688 $ -19 $ 447
Bancorpsouth Inc 2016-09-30 4,267,351 Sold Some -700 $ -19 $ 120,851
Penserra Capital Management Llc 2016-09-30 0 Sold All -758 $ -21 $ 0
Dekabank Deutsche Girozentrale 2016-09-30 4,426 Sold Some -1,018 $ -28 $ 125
Gateway Investment Advisers Llc 2016-09-30 15,548 Sold Some -1,027 $ -29 $ 440
M T Bank Corp 2016-09-30 12,981 Sold Some -1,079 $ -30 $ 367
Cibc Asset Management Inc 2016-09-30 17,747 Sold Some -1,238 $ -35 $ 502
Assetmark Inc 2016-09-30 1,817 Sold Some -1,294 $ -36 $ 51
Baird Financial Group Inc 2016-09-30 19,072 Sold Some -1,475 $ -41 $ 540
Oakbrook Investments Llc 2016-09-30 9,750 Sold Some -1,500 $ -42 $ 276
Aperio Group Llc 2016-09-30 118,715 Sold Some -1,570 $ -44 $ 3,362
Kbc Group Nv 2016-09-30 6,780 Sold Some -1,879 $ -53 $ 192
United Capital Financial Advisers Llc 2016-09-30 143,254 Sold Some -1,886 $ -53 $ 4,056
Pnc Financial Services Group Inc 2016-09-30 60,988 Sold Some -1,917 $ -54 $ 1,727
Choate Investment Advisors 2016-09-30 9,984 Sold Some -1,953 $ -55 $ 282
Mutual Of America Capital Management Llc 2016-09-30 16,580 Sold Some -1,965 $ -55 $ 469
Regions Financial Corp 2016-09-30 15,110 Sold Some -2,026 $ -57 $ 427
New Mexico Educational Retirement Board 2016-09-30 16,335 Sold Some -2,100 $ -59 $ 462
South State Corp 2016-09-30 32,300 Sold Some -2,465 $ -69 $ 914
Schooner Investment Group Llc 2016-09-30 0 Sold All -2,500 $ -70 $ 0
Ontario Teachers Pension Plan Board 2016-09-30 40,367 Sold Some -2,518 $ -71 $ 1,143
Checchi Capital Advisers Llc 2016-09-30 0 Sold All -2,538 $ -71 $ 0
Lord Abbett Co Llc 2016-09-30 113,700 Sold Some -2,600 $ -73 $ 3,219
Aberdeen Asset Management Plc Uk 2016-09-30 81,094 Sold Some -2,632 $ -74 $ 2,296
Texas Permanent School Fund 2016-09-30 49,849 Sold Some -2,667 $ -75 $ 1,411
Teachers Advisors Inc 2016-09-30 196,810 Sold Some -2,722 $ -77 $ 5,573
Profund Advisors Llc 2016-09-30 9,577 Sold Some -2,897 $ -82 $ 271
Point72 Asia Hong Kong Ltd 2016-09-30 0 Sold All -3,100 $ -87 $ 0
Chevy Chase Trust Holdings Inc 2016-09-30 137,603 Sold Some -3,199 $ -90 $ 3,896
Euclid Advisors Llc 2016-09-30 0 Sold All -3,260 $ -92 $ 0
New York State Teachers Retirement System 2016-09-30 295,786 Sold Some -3,399 $ -96 $ 8,376
Diam Co Ltd 2016-09-30 78,926 Sold Some -3,700 $ -104 $ 2,235
Candriam Luxembourg S C A 2016-09-30 11,260 Sold Some -4,092 $ -115 $ 318
Her Majesty The Queen In Right Of The Province Of Alberta As 2016-09-30 9,600 Sold Some -4,500 $ -127 $ 271
Kessler Investment Group Llc 2016-09-30 0 Sold All -4,829 $ -136 $ 0
Us Bancorp De 2016-09-30 92,291 Sold Some -4,845 $ -137 $ 2,613
Envestnet Asset Management Inc 2016-09-30 148,550 Sold Some -5,505 $ -155 $ 4,206
Proshare Advisors Llc 2016-09-30 24,671 Sold Some -5,672 $ -160 $ 698
Swiss National Bank 2016-09-30 452,419 Sold Some -5,700 $ -161 $ 12,812
Old Mutual Customised Solutions Proprietary Ltd 2016-09-30 11,300 Sold Some -6,300 $ -178 $ 320
Integral Derivatives Llc 2016-09-30 0 Sold All -6,500 $ -184 $ 0
National Asset Management Inc 2016-09-30 0 Sold All -6,650 $ -188 $ 0
Robeco Institutional Asset Management B V 2016-09-30 0 Sold All -6,844 $ -193 $ 0
Prospector Partners Llc 2016-09-30 0 Sold All -7,000 $ -198 $ 0
Nisa Investment Advisors Llc 2016-09-30 116,704 Sold Some -7,630 $ -216 $ 3,305
Advisors Asset Management Inc 2016-09-30 420,433 Sold Some -8,777 $ -248 $ 11,906
Patton Albertson Miller Group Llc 2016-09-30 18,398 Sold Some -9,116 $ -258 $ 521
Squarepoint Ops Llc 2016-09-30 0 Sold All -9,720 $ -275 $ 0
Acropolis Investment Management Llc 2016-09-30 59,915 Sold Some -10,065 $ -285 $ 1,696
Two Sigma Securities Llc 2016-09-30 0 Sold All -10,250 $ -290 $ 0
Spot Trading L L C 2016-09-30 61,711 Sold Some -12,389 $ -350 $ 1,747
Petrus Trust Company Lta 2016-09-30 0 Sold All -13,438 $ -380 $ 0
Livforsakringsbolaget Skandia Omsesidigt 2016-09-30 3,642 Sold Some -14,346 $ -406 $ 103
Blackrock Inc 2016-09-30 360,697 Sold Some -14,452 $ -409 $ 10,214
Quantbot Technologies Lp 2016-09-30 0 Sold All -14,639 $ -414 $ 0
Cubist Systematic Strategies Llc 2016-09-30 0 Sold All -15,248 $ -431 $ 0
Gam Holding Ag 2016-09-30 26,331 Sold Some -15,500 $ -438 $ 745
Natixis Asset Management 2016-09-30 16,056 Sold Some -15,523 $ -439 $ 454
Dynamic Capital Management Ltd 2016-09-30 0 Sold All -15,624 $ -442 $ 0
Sciencast Management Lp 2016-09-30 0 Sold All -16,200 $ -458 $ 0
Hgk Asset Management Inc 2016-09-30 391,470 Sold Some -16,805 $ -475 $ 11,086
Kcg Holdings Inc 2016-09-30 0 Sold All -20,888 $ -591 $ 0
Teacher Retirement System Of Texas 2016-09-30 0 Sold All -24,205 $ -685 $ 0
Trexquant Investment Lp 2016-09-30 0 Sold All -26,700 $ -756 $ 0
Panagora Asset Management Inc 2016-09-30 481,256 Sold Some -32,071 $ -908 $ 13,629
Commonwealth Bank Of Australia 2016-09-30 178,662 Sold Some -36,100 $ -1,022 $ 5,059
Cutler Group Lp 2016-09-30 87,299 Sold Some -38,304 $ -1,084 $ 2,472
Oregon Public Employees Retirement Fund 2016-09-30 49,587 Sold Some -38,535 $ -1,091 $ 1,404
Cornerstone Capital Management Holdings Llc 2016-09-30 156,156 Sold Some -39,792 $ -1,126 $ 4,422
Spark Investment Management Llc 2016-09-30 25,600 Sold Some -49,600 $ -1,404 $ 724
Sumitomo Mitsui Trust Holdings Inc 2016-09-30 460,257 Sold Some -51,371 $ -1,454 $ 13,034
Css Llc Il 2016-09-30 20,900 Sold Some -51,900 $ -1,469 $ 591
Northern Trust Corp 2016-09-30 2,118,147 Sold Some -58,037 $ -1,643 $ 59,985
A R T Advisors Llc 2016-09-30 6,955 Sold Some -67,082 $ -1,899 $ 196
New York State Common Retirement Fund 2016-09-30 462,453 Sold Some -77,700 $ -2,200 $ 13,096
Dupont Capital Management Corp 2016-09-30 257,723 Sold Some -84,028 $ -2,379 $ 7,298
Engineers Gate Manager Lp 2016-09-30 23,446 Sold Some -101,865 $ -2,884 $ 663
Marshall Wace Llp 2016-09-30 14,209 Sold Some -102,026 $ -2,889 $ 402
Peak6 Investments L P 2016-09-30 117,534 Sold Some -112,628 $ -3,189 $ 3,328
Quadrature Capital Ltd 2016-09-30 64,930 Sold Some -162,550 $ -4,603 $ 1,838
Hotchkis Wiley Capital Management Llc 2016-09-30 10,062,145 Sold Some -212,227 $ -6,010 $ 284,959
Old Republic International Corp 2016-09-30 0 Sold All -475,000 $ -13,452 $ 0
Bridgeway Capital Management Inc 2016-09-30 0 Sold All -740,047 $ -20,958 $ 0
Royal London Asset Management Ltd 2016-06-30 58,264 Sold Some -954,776 $ -30,314 $ 1,849
Nn Investment Partners Holdings N V 2016-09-30 690,415 Sold Some -1,369,583 $ -38,786 $ 19,552